首页
METAR-TAF:

METAR-TAF

机场 :

Vernal Regional Airport

Vernal, 犹他州, 美国

纬度: 40-26-39N, 经度: 109-30-42W, 海拔: 1607米

当前天气观测

该预报发布于1小时和14分钟前的20:53 UTC
静风
温度 9°C
湿度 31%
气压 1017 hPa
能見度: 16.1公里
多云层高于6500英尺
多云层高于9000英尺

METAR: KVEL 292053Z AUTO 00000KT 10SM BKN065 BKN090 09/M07 A3002 RMK AO2 SLP165 T00941067 58020

时间: 16:07 (22:07 UTC)

预报

该预报发布于4小时和43分钟前的17:24 UTC
预报有效从29日的 18点(UTC)到 30日的 18点(UTC)
风速3节,风向多变
能見度: 10公里
散云层高于5000英尺
多云层高于18000英尺
从 29日的 2000点(UTC)
风速5节,风向
能見度: 10公里
散云层高于6000英尺
多云层高于12000英尺
从 29日的 2300点(UTC)
风速4节,风向多变
能見度: 10公里
散云层高于5000英尺
多云层高于9000英尺
从 30日的 0200点(UTC)
风速4节,风向多变
能見度: 10公里
散云层高于5000英尺
多云层高于8000英尺
从 30日的 1400点(UTC)
风速节,风向
能見度: 10公里
少量云层高于4000英尺
散云层高于6000英尺

TAF: KVEL 291724Z 2918/3018 VRB03KT P6SM SCT050 BKN180 FM292000 19005KT P6SM SCT060 BKN120 FM292300 VRB04KT P6SM SCT050 BKN090 FM300200 VRB04KT P6SM SCT050 BKN080 FM301400 00000KT P6SM FEW040 SCT060

超过4000个机场的气象观测和天气预报(METAR&TAF报告)。

可查询的气象台以黄色和红色小点在地图上表示。

将鼠标移到小点上方,可查看气象台名称。

然后点击查看天气观测和预报。

如需切换地图:点击带黑十字的绿色按钮放大地图;点击带横线的绿色按钮缩小地图;或者点击绿色箭头查看邻近地区的地图。


METAR-TAF: